createdAt,value
2023-01-20T00:01:25.639Z,-0.80
2023-01-20T00:03:54.344Z,-0.80
2023-01-20T00:06:22.327Z,-0.80
2023-01-20T00:08:53.311Z,-0.80
2023-01-20T00:11:21.063Z,-0.80
2023-01-20T00:13:48.987Z,-0.80
2023-01-20T00:16:16.129Z,-0.80
2023-01-20T00:18:43.178Z,-0.80
2023-01-20T00:21:12.779Z,-0.80
2023-01-20T00:23:41.637Z,-0.80
2023-01-20T00:26:11.730Z,-0.70
2023-01-20T00:28:38.993Z,-0.70
2023-01-20T00:31:21.344Z,-0.70
2023-01-20T00:33:50.558Z,-0.70
2023-01-20T00:36:20.020Z,-0.70
2023-01-20T00:38:47.226Z,-0.70
2023-01-20T00:41:14.220Z,-0.70
2023-01-20T00:43:41.641Z,-0.80
2023-01-20T00:46:09.088Z,-0.70
2023-01-20T00:48:36.767Z,-0.70
2023-01-20T00:51:05.428Z,-0.70
2023-01-20T00:53:32.900Z,-0.70
2023-01-20T00:56:00.252Z,-0.70
2023-01-20T00:58:27.671Z,-0.60
2023-01-20T01:00:55.547Z,-0.60
2023-01-20T01:03:23.168Z,-0.60
2023-01-20T01:05:50.321Z,-0.60
2023-01-20T01:08:17.699Z,-0.70
2023-01-20T01:10:44.854Z,-0.70
2023-01-20T01:13:12.088Z,-0.70
2023-01-20T01:15:39.181Z,-0.70
2023-01-20T01:18:06.246Z,-0.70
2023-01-20T01:20:33.287Z,-0.70
2023-01-20T01:23:00.325Z,-0.70
2023-01-20T01:25:27.278Z,-0.70
2023-01-20T01:27:54.388Z,-0.70
2023-01-20T01:30:21.569Z,-0.70
2023-01-20T01:32:48.652Z,-0.70
2023-01-20T01:35:16.238Z,-0.60
2023-01-20T01:37:43.533Z,-0.70
2023-01-20T01:40:11.279Z,-0.60
2023-01-20T01:42:38.664Z,-0.70
2023-01-20T01:45:12.396Z,-0.70
2023-01-20T01:47:54.558Z,-0.60
2023-01-20T01:50:26.293Z,-0.60
2023-01-20T01:52:56.063Z,-0.60
2023-01-20T01:55:27.997Z,-0.60
2023-01-20T01:57:56.649Z,-0.60
2023-01-20T02:00:23.680Z,-0.50
2023-01-20T02:02:52.288Z,-0.60
2023-01-20T02:05:20.108Z,-0.60
2023-01-20T02:07:49.054Z,-0.50
2023-01-20T02:10:17.049Z,-0.50
2023-01-20T02:12:49.541Z,-0.50
2023-01-20T02:15:18.523Z,-0.50
2023-01-20T02:17:56.659Z,-0.50
2023-01-20T02:21:08.996Z,-0.50
2023-01-20T02:23:50.952Z,-0.50
2023-01-20T02:26:38.183Z,-0.50
2023-01-20T02:29:27.050Z,-0.50
2023-01-20T02:32:19.940Z,-0.50
2023-01-20T02:34:59.565Z,-0.40
2023-01-20T02:37:30.648Z,-0.40
2023-01-20T02:40:17.069Z,-0.50
2023-01-20T02:43:09.937Z,-0.40
2023-01-20T02:45:55.273Z,-0.40
2023-01-20T02:48:34.507Z,-0.40
2023-01-20T02:51:24.589Z,-0.40
2023-01-20T02:53:56.307Z,-0.40
2023-01-20T02:56:27.143Z,-0.40
2023-01-20T02:59:07.706Z,-0.50
2023-01-20T03:01:42.157Z,-0.40
2023-01-20T03:04:13.514Z,-0.40
2023-01-20T03:06:46.583Z,-0.40
2023-01-20T03:09:18.353Z,-0.40
2023-01-20T03:11:53.498Z,-0.40
2023-01-20T03:14:20.569Z,-0.40
2023-01-20T03:16:48.959Z,-0.40
2023-01-20T03:19:19.477Z,-0.40
2023-01-20T03:21:47.826Z,-0.40
2023-01-20T03:24:14.936Z,-0.40
2023-01-20T03:26:42.142Z,-0.30
2023-01-20T03:29:13.143Z,-0.40
2023-01-20T03:31:44.984Z,-0.40
2023-01-20T03:34:17.318Z,-0.40
2023-01-20T03:36:45.978Z,-0.30
2023-01-20T03:39:13.049Z,-0.30
2023-01-20T03:41:46.074Z,-0.40
2023-01-20T03:44:33.672Z,-0.30
2023-01-20T03:47:21.926Z,-0.30
2023-01-20T03:49:59.076Z,-0.30
2023-01-20T03:52:48.120Z,-0.40
2023-01-20T03:55:28.813Z,-0.30
2023-01-20T03:58:11.818Z,-0.30
2023-01-20T04:00:42.870Z,-0.30
2023-01-20T04:03:19.084Z,-0.30
2023-01-20T04:05:48.054Z,-0.30
2023-01-20T04:08:19.053Z,-0.30
2023-01-20T04:10:48.567Z,-0.30
2023-01-20T04:13:16.368Z,-0.30
2023-01-20T04:15:45.540Z,-0.30
2023-01-20T04:18:21.827Z,-0.30
2023-01-20T04:21:11.174Z,-0.30
2023-01-20T04:23:48.300Z,-0.30
2023-01-20T04:26:15.360Z,-0.30
2023-01-20T04:28:42.391Z,-0.30
2023-01-20T04:31:18.241Z,-0.20
2023-01-20T04:33:52.091Z,-0.30
2023-01-20T04:36:19.074Z,-0.30
2023-01-20T04:38:46.124Z,-0.30
2023-01-20T04:41:13.168Z,-0.30
2023-01-20T04:43:45.286Z,-0.30
2023-01-20T04:46:13.399Z,-0.30
2023-01-20T04:48:40.492Z,-0.20
2023-01-20T04:51:08.487Z,-0.30
2023-01-20T04:53:35.586Z,-0.30
2023-01-20T04:56:02.769Z,-0.20
2023-01-20T04:58:29.854Z,-0.30
2023-01-20T05:00:56.897Z,-0.30
2023-01-20T05:03:23.996Z,-0.30
2023-01-20T05:05:56.966Z,-0.30
2023-01-20T05:08:24.269Z,-0.30
2023-01-20T05:10:51.316Z,-0.30
2023-01-20T05:13:18.324Z,-0.20
2023-01-20T05:15:45.374Z,-0.30
2023-01-20T05:18:12.420Z,-0.30
2023-01-20T05:20:39.428Z,-0.20
2023-01-20T05:23:07.140Z,-0.30
2023-01-20T05:25:34.174Z,-0.30
2023-01-20T05:28:01.271Z,-0.20
2023-01-20T05:30:28.680Z,-0.30
2023-01-20T05:32:55.686Z,-0.20
2023-01-20T05:35:22.948Z,-0.20
2023-01-20T05:37:54.496Z,-0.20
2023-01-20T05:40:21.910Z,-0.20
2023-01-20T05:42:48.876Z,-0.20
2023-01-20T05:45:16.485Z,-0.20
2023-01-20T05:47:43.700Z,-0.20
2023-01-20T05:50:11.429Z,-0.20
2023-01-20T05:52:38.384Z,-0.20
2023-01-20T05:55:05.996Z,-0.20
2023-01-20T05:57:32.974Z,-0.20
2023-01-20T06:00:00.011Z,-0.20
2023-01-20T06:02:27.065Z,-0.20
2023-01-20T06:04:56.140Z,-0.20
2023-01-20T06:07:23.154Z,-0.20
2023-01-20T06:09:50.160Z,-0.10
2023-01-20T06:12:17.194Z,-0.20
2023-01-20T06:14:44.172Z,-0.20
2023-01-20T06:17:11.214Z,-0.20
2023-01-20T06:19:38.192Z,-0.20
2023-01-20T06:22:05.250Z,-0.10
2023-01-20T06:24:32.248Z,-0.10
2023-01-20T06:26:59.332Z,-0.10
2023-01-20T06:29:26.240Z,0.00
2023-01-20T06:31:53.326Z,-0.10
2023-01-20T06:34:20.325Z,-0.10
2023-01-20T06:36:47.333Z,-0.10
2023-01-20T06:39:14.371Z,-0.10
2023-01-20T06:41:41.382Z,-0.10
2023-01-20T06:44:08.537Z,-0.10
2023-01-20T06:46:35.477Z,-0.10
2023-01-20T06:49:02.592Z,-0.10
2023-01-20T06:51:30.730Z,-0.10
2023-01-20T06:53:58.160Z,-0.10
2023-01-20T06:56:25.088Z,-0.10
2023-01-20T06:58:52.239Z,-0.20
2023-01-20T07:01:23.808Z,-0.20
2023-01-20T07:03:51.069Z,-0.10
2023-01-20T07:06:26.935Z,-0.10
2023-01-20T07:08:53.944Z,-0.20
2023-01-20T07:11:21.312Z,-0.10
2023-01-20T07:13:48.481Z,-0.10
2023-01-20T07:16:16.174Z,-0.10
2023-01-20T07:18:44.076Z,0.00
2023-01-20T07:21:12.464Z,-0.10
2023-01-20T07:23:39.870Z,-0.10
2023-01-20T07:26:09.595Z,0.00
2023-01-20T07:28:37.611Z,0.00
2023-01-20T07:31:10.565Z,0.00
2023-01-20T07:33:37.788Z,0.10
2023-01-20T07:36:06.919Z,0.10
2023-01-20T07:38:34.754Z,0.10
2023-01-20T07:41:05.069Z,0.20
2023-01-20T07:43:33.112Z,0.20
2023-01-20T07:46:02.408Z,0.30
2023-01-20T07:48:33.951Z,0.30
2023-01-20T07:51:06.578Z,0.40
2023-01-20T07:53:42.279Z,0.40
2023-01-20T07:56:15.805Z,0.50
2023-01-20T07:58:45.361Z,0.50
2023-01-20T08:01:15.574Z,0.50
2023-01-20T08:03:43.339Z,0.50
2023-01-20T08:06:13.079Z,0.50
2023-01-20T08:08:40.090Z,0.60
2023-01-20T08:11:08.834Z,0.60
2023-01-20T08:13:36.138Z,0.70
2023-01-20T08:16:05.239Z,0.70
2023-01-20T08:18:33.147Z,0.70
2023-01-20T08:21:00.268Z,0.70
2023-01-20T08:23:27.277Z,0.70
2023-01-20T08:26:00.048Z,0.70
2023-01-20T08:28:27.202Z,0.70
2023-01-20T08:30:54.609Z,0.80
2023-01-20T08:33:21.564Z,0.80
2023-01-20T08:35:48.768Z,0.90
2023-01-20T08:38:15.776Z,1.00
2023-01-20T08:40:43.416Z,1.10
2023-01-20T08:43:10.440Z,1.20
2023-01-20T08:45:37.515Z,1.30
2023-01-20T08:48:04.523Z,1.30
2023-01-20T08:50:31.630Z,1.30
2023-01-20T08:52:58.723Z,1.20
2023-01-20T08:55:25.708Z,1.20
2023-01-20T08:57:52.719Z,1.10
2023-01-20T09:00:20.042Z,1.00
2023-01-20T09:02:47.033Z,0.90
2023-01-20T09:05:15.070Z,0.90
2023-01-20T09:07:42.389Z,0.80
2023-01-20T09:10:09.849Z,0.70
2023-01-20T09:12:37.724Z,0.70
2023-01-20T09:15:07.669Z,0.70
2023-01-20T09:17:37.614Z,0.70
2023-01-20T09:20:04.898Z,0.60
2023-01-20T09:22:32.352Z,0.60
2023-01-20T09:25:00.465Z,0.60
2023-01-20T09:27:27.540Z,0.70
2023-01-20T09:29:54.438Z,0.60
2023-01-20T09:32:21.372Z,0.70
2023-01-20T09:34:48.375Z,0.70
2023-01-20T09:37:33.816Z,0.70
2023-01-20T09:40:19.803Z,0.70
2023-01-20T09:43:41.762Z,0.70
2023-01-20T09:46:10.844Z,0.70
2023-01-20T09:49:43.230Z,0.70
2023-01-20T09:53:01.278Z,0.70
2023-01-20T09:55:32.557Z,0.80
2023-01-20T09:58:05.829Z,0.80
2023-01-20T10:00:36.038Z,0.80
2023-01-20T10:03:15.160Z,0.80
2023-01-20T10:05:44.823Z,0.90
2023-01-20T10:08:24.747Z,0.90
2023-01-20T10:11:04.747Z,0.90
2023-01-20T10:14:15.804Z,0.80
2023-01-20T10:16:54.438Z,0.90
2023-01-20T10:19:27.344Z,0.90
2023-01-20T10:22:04.871Z,1.00
2023-01-20T10:24:37.764Z,1.10
2023-01-20T10:27:05.522Z,1.10
2023-01-20T10:29:38.454Z,1.20
2023-01-20T10:32:37.807Z,1.20
2023-01-20T10:35:29.066Z,1.20
2023-01-20T10:37:58.609Z,1.20
2023-01-20T10:40:39.421Z,1.30
2023-01-20T10:43:15.568Z,1.30
2023-01-20T10:46:04.556Z,1.30
2023-01-20T10:48:58.933Z,1.30
2023-01-20T10:51:44.665Z,1.30
2023-01-20T10:55:08.545Z,1.20
2023-01-20T10:57:36.254Z,1.20
2023-01-20T11:00:08.268Z,1.10
2023-01-20T11:02:38.099Z,1.00
2023-01-20T11:05:24.804Z,1.10
2023-01-20T11:07:54.135Z,1.00
2023-01-20T11:10:29.348Z,1.00
2023-01-20T11:12:59.828Z,1.00
2023-01-20T11:15:36.815Z,1.10
2023-01-20T11:18:15.779Z,1.10
2023-01-20T11:20:53.942Z,1.10
2023-01-20T11:23:30.322Z,1.10
2023-01-20T11:25:59.129Z,1.10
2023-01-20T11:28:27.047Z,1.10
2023-01-20T11:30:56.358Z,1.10
2023-01-20T11:33:26.803Z,1.20
2023-01-20T11:35:57.952Z,1.20
2023-01-20T11:38:27.933Z,1.20
2023-01-20T11:40:57.833Z,1.20
2023-01-20T11:43:32.285Z,1.20
2023-01-20T11:46:41.171Z,1.20
2023-01-20T11:53:44.000Z,1.20
2023-01-20T11:56:29.024Z,1.20
2023-01-20T11:59:01.927Z,1.20
2023-01-20T12:01:31.595Z,1.20
2023-01-20T12:04:23.349Z,1.20
2023-01-20T12:06:58.790Z,1.20
2023-01-20T12:09:34.336Z,1.30
2023-01-20T12:12:27.790Z,1.40
2023-01-20T12:15:13.685Z,1.40
2023-01-20T12:18:00.044Z,1.50
2023-01-20T12:20:54.880Z,1.60
2023-01-20T12:23:48.412Z,1.60
2023-01-20T12:26:18.280Z,1.60
2023-01-20T12:28:49.305Z,1.60
2023-01-20T12:31:20.993Z,1.70
2023-01-20T12:33:51.560Z,1.70
2023-01-20T12:36:37.441Z,1.80
2023-01-20T12:39:38.565Z,1.90
2023-01-20T12:42:31.163Z,2.00
2023-01-20T12:45:19.422Z,2.00
2023-01-20T12:47:58.394Z,2.00
2023-01-20T12:50:59.345Z,2.00
2023-01-20T12:53:57.109Z,2.10
2023-01-20T12:57:03.454Z,2.10
2023-01-20T12:59:40.938Z,2.20
2023-01-20T13:02:18.733Z,2.30
2023-01-20T13:05:03.057Z,2.40
2023-01-20T13:07:42.707Z,2.40
2023-01-20T13:10:24.540Z,2.50
2023-01-20T13:13:09.168Z,2.50
2023-01-20T13:15:44.318Z,2.60
2023-01-20T13:18:47.982Z,2.60
2023-01-20T13:21:21.161Z,2.80
2023-01-20T13:23:50.533Z,2.90
2023-01-20T13:26:18.631Z,3.00
2023-01-20T13:29:03.568Z,3.10
2023-01-20T13:31:44.381Z,3.20
2023-01-20T13:34:39.746Z,3.30
2023-01-20T13:37:18.846Z,3.40
2023-01-20T13:39:47.251Z,3.60
2023-01-20T13:42:31.693Z,3.80
2023-01-20T13:45:14.410Z,4.00
2023-01-20T13:47:54.890Z,4.20
2023-01-20T13:50:43.308Z,4.30
2023-01-20T13:53:15.125Z,4.50
2023-01-20T13:55:42.012Z,4.60
2023-01-20T13:58:34.053Z,4.60
2023-01-20T14:01:06.376Z,4.60
2023-01-20T14:03:35.133Z,4.30
2023-01-20T14:06:18.411Z,4.20
2023-01-20T14:08:46.258Z,3.90
2023-01-20T14:11:13.315Z,3.70
2023-01-20T14:13:42.227Z,3.50
2023-01-20T14:16:25.906Z,3.40
2023-01-20T14:18:56.399Z,3.20
2023-01-20T14:21:25.891Z,2.90
2023-01-20T14:23:53.035Z,2.70
2023-01-20T14:26:29.221Z,2.50
2023-01-20T14:29:01.458Z,2.40
2023-01-20T14:31:45.647Z,2.30
2023-01-20T14:34:33.115Z,2.30
2023-01-20T14:37:03.804Z,2.30
2023-01-20T14:39:30.997Z,2.40
2023-01-20T14:42:00.398Z,2.40
2023-01-20T14:44:34.766Z,2.30
2023-01-20T14:47:03.587Z,2.20
2023-01-20T14:49:39.387Z,2.20
2023-01-20T14:52:08.446Z,2.10
2023-01-20T14:54:46.133Z,2.00
2023-01-20T14:57:21.952Z,1.90
2023-01-20T15:00:18.631Z,1.80
2023-01-20T15:03:16.333Z,1.70
2023-01-20T15:05:58.580Z,1.60
2023-01-20T15:08:29.983Z,1.40
2023-01-20T15:11:19.010Z,1.30
2023-01-20T15:13:54.823Z,1.20
2023-01-20T15:16:24.549Z,1.10
2023-01-20T15:19:13.590Z,1.00
2023-01-20T15:21:44.127Z,1.00
2023-01-20T15:24:20.603Z,0.90
2023-01-20T15:26:50.025Z,0.70
2023-01-20T15:29:21.329Z,0.60
2023-01-20T15:31:48.923Z,0.50
2023-01-20T15:34:16.008Z,0.40
2023-01-20T15:36:44.145Z,0.20
2023-01-20T15:39:19.208Z,0.10
2023-01-20T15:41:47.722Z,0.00
2023-01-20T15:44:15.490Z,-0.10
2023-01-20T15:46:42.496Z,-0.20
2023-01-20T15:49:12.651Z,-0.30
2023-01-20T15:51:39.693Z,-0.40
2023-01-20T15:54:09.721Z,-0.50
2023-01-20T15:56:39.621Z,-0.60
2023-01-20T15:59:14.349Z,-0.70
2023-01-20T16:01:41.412Z,-0.80
2023-01-20T16:04:09.712Z,-0.90
2023-01-20T16:06:37.650Z,-1.00
2023-01-20T16:09:22.925Z,-1.10
2023-01-20T16:11:49.863Z,-1.20
2023-01-20T16:14:16.973Z,-1.30
2023-01-20T16:16:43.883Z,-1.30
2023-01-20T16:19:15.357Z,-1.30
2023-01-20T16:21:45.156Z,-1.40
2023-01-20T16:24:12.761Z,-1.50
2023-01-20T16:26:40.299Z,-1.60
2023-01-20T16:29:09.742Z,-1.70
2023-01-20T16:31:37.080Z,-1.80
2023-01-20T16:34:05.149Z,-1.90
2023-01-20T16:36:32.112Z,-1.90
2023-01-20T16:38:59.049Z,-2.00
2023-01-20T16:41:30.674Z,-2.00
2023-01-20T16:43:58.564Z,-2.10
2023-01-20T16:46:31.676Z,-2.10
2023-01-20T16:49:03.546Z,-2.20
2023-01-20T16:51:32.775Z,-2.20
2023-01-20T16:54:01.042Z,-2.30
2023-01-20T16:56:30.213Z,-2.40
2023-01-20T16:58:58.810Z,-2.50
2023-01-20T17:01:26.409Z,-2.50
2023-01-20T17:03:55.124Z,-2.60
2023-01-20T17:06:24.606Z,-2.70
2023-01-20T17:08:53.865Z,-2.70
2023-01-20T17:11:23.180Z,-2.80
2023-01-20T17:13:50.886Z,-2.80
2023-01-20T17:16:19.179Z,-2.90
2023-01-20T17:18:50.772Z,-2.90
2023-01-20T17:21:19.577Z,-2.90
2023-01-20T17:23:54.502Z,-3.00
2023-01-20T17:26:21.947Z,-3.00
2023-01-20T17:28:49.319Z,-3.00
2023-01-20T17:31:16.414Z,-3.10
2023-01-20T17:33:46.830Z,-3.20
2023-01-20T17:36:14.147Z,-3.30
2023-01-20T17:38:41.150Z,-3.40
2023-01-20T17:41:09.169Z,-3.40
2023-01-20T17:43:54.599Z,-3.40
2023-01-20T17:46:24.691Z,-3.40
2023-01-20T17:48:51.626Z,-3.40
2023-01-20T17:51:23.717Z,-3.50
2023-01-20T17:53:51.797Z,-3.50
2023-01-20T17:56:20.345Z,-3.50
2023-01-20T17:58:48.355Z,-3.50
2023-01-20T18:01:16.572Z,-3.50
2023-01-20T18:03:44.452Z,-3.50
2023-01-20T18:06:13.559Z,-3.50
2023-01-20T18:08:41.110Z,-3.60
2023-01-20T18:11:10.577Z,-3.60
2023-01-20T18:13:38.156Z,-3.70
2023-01-20T18:16:07.311Z,-3.70
2023-01-20T18:18:34.574Z,-3.80
2023-01-20T18:21:14.791Z,-3.80
2023-01-20T18:23:42.714Z,-3.80
2023-01-20T18:26:11.248Z,-3.90
2023-01-20T18:28:38.609Z,-3.90
2023-01-20T18:31:11.746Z,-4.00
2023-01-20T18:33:44.668Z,-4.00
2023-01-20T18:36:14.996Z,-4.00
2023-01-20T18:38:45.716Z,-4.00
2023-01-20T18:41:14.507Z,-4.00
2023-01-20T18:43:41.815Z,-4.10
2023-01-20T18:46:09.732Z,-4.20
2023-01-20T18:48:41.084Z,-4.20
2023-01-20T18:51:12.275Z,-4.20
2023-01-20T18:53:39.315Z,-4.30
2023-01-20T18:56:09.294Z,-4.30
2023-01-20T18:58:38.501Z,-4.30
2023-01-20T19:01:07.751Z,-4.30
2023-01-20T19:03:35.874Z,-4.30
2023-01-20T19:06:13.710Z,-4.30
2023-01-20T19:08:41.511Z,-4.40
2023-01-20T19:11:21.523Z,-4.40
2023-01-20T19:13:50.295Z,-4.50
2023-01-20T19:16:21.693Z,-4.50
2023-01-20T19:18:53.871Z,-4.50
2023-01-20T19:21:22.250Z,-4.60
2023-01-20T19:23:53.634Z,-4.60
2023-01-20T19:26:22.306Z,-4.60
2023-01-20T19:29:03.667Z,-4.70
2023-01-20T19:31:34.058Z,-4.80
2023-01-20T19:34:01.929Z,-4.90
2023-01-20T19:36:30.250Z,-4.90
2023-01-20T19:38:58.412Z,-4.80
2023-01-20T19:41:29.462Z,-4.80
2023-01-20T19:43:58.635Z,-4.80
2023-01-20T19:46:32.287Z,-4.80
2023-01-20T19:49:00.740Z,-4.80
2023-01-20T19:51:29.779Z,-4.80
2023-01-20T19:53:58.839Z,-4.90
2023-01-20T19:56:29.018Z,-5.00
2023-01-20T19:58:57.417Z,-5.10
2023-01-20T20:01:31.399Z,-5.10
2023-01-20T20:04:04.000Z,-5.10
2023-01-20T20:06:36.672Z,-5.20
2023-01-20T20:09:11.637Z,-5.10
2023-01-20T20:11:39.627Z,-5.20
2023-01-20T20:14:09.097Z,-5.20
2023-01-20T20:16:37.623Z,-5.10
2023-01-20T20:19:07.191Z,-5.20
2023-01-20T20:21:35.543Z,-5.30
2023-01-20T20:24:03.179Z,-5.30
2023-01-20T20:26:33.532Z,-5.30
2023-01-20T20:29:02.468Z,-5.30
2023-01-20T20:31:30.820Z,-5.30
2023-01-20T20:34:02.852Z,-5.40
2023-01-20T20:36:31.232Z,-5.30
2023-01-20T20:38:59.530Z,-5.30
2023-01-20T20:41:29.385Z,-5.20
2023-01-20T20:43:58.022Z,-5.20
2023-01-20T20:46:26.219Z,-5.20
2023-01-20T20:48:55.397Z,-5.20
2023-01-20T20:51:26.254Z,-5.20
2023-01-20T20:53:58.004Z,-5.30
2023-01-20T20:56:28.028Z,-5.40
2023-01-20T20:59:02.036Z,-5.40
2023-01-20T21:01:33.266Z,-5.50
2023-01-20T21:04:01.639Z,-5.50
2023-01-20T21:06:30.059Z,-5.60
2023-01-20T21:08:59.027Z,-5.70
2023-01-20T21:11:27.078Z,-5.80
2023-01-20T21:13:54.779Z,-5.80
2023-01-20T21:16:24.557Z,-5.80
2023-01-20T21:18:54.198Z,-5.80
2023-01-20T21:21:22.493Z,-5.80
2023-01-20T21:23:55.602Z,-5.80
2023-01-20T21:26:23.959Z,-5.80
2023-01-20T21:28:51.310Z,-5.80
2023-01-20T21:31:24.029Z,-5.90
2023-01-20T21:33:57.202Z,-5.80
2023-01-20T21:36:27.033Z,-5.80
2023-01-20T21:38:54.765Z,-5.80
2023-01-20T21:41:23.221Z,-5.80
2023-01-20T21:44:09.268Z,-5.80
2023-01-20T21:46:39.619Z,-5.70
2023-01-20T21:49:29.327Z,-5.70
2023-01-20T21:52:16.688Z,-5.70
2023-01-20T21:54:45.681Z,-5.70
2023-01-20T21:57:14.897Z,-5.70
2023-01-20T21:59:42.767Z,-5.80
2023-01-20T22:02:12.759Z,-5.90
2023-01-20T22:04:40.836Z,-5.80
2023-01-20T22:07:08.020Z,-5.80
2023-01-20T22:09:35.080Z,-5.80
2023-01-20T22:12:02.383Z,-5.90
2023-01-20T22:14:29.446Z,-6.00
2023-01-20T22:16:57.296Z,-6.00
2023-01-20T22:19:24.443Z,-6.00
2023-01-20T22:21:51.581Z,-6.00
2023-01-20T22:24:18.598Z,-6.00
2023-01-20T22:26:50.258Z,-6.00
2023-01-20T22:29:18.040Z,-6.00
2023-01-20T22:31:46.264Z,-6.00
2023-01-20T22:34:13.608Z,-6.00
2023-01-20T22:36:40.781Z,-6.10
2023-01-20T22:39:08.110Z,-6.10
2023-01-20T22:41:35.100Z,-6.10
2023-01-20T22:44:02.160Z,-6.00
2023-01-20T22:46:29.851Z,-6.00
2023-01-20T22:48:57.770Z,-6.00
2023-01-20T22:51:30.328Z,-6.00
2023-01-20T22:53:59.685Z,-6.00
2023-01-20T22:56:29.804Z,-5.90
2023-01-20T22:58:58.189Z,-6.00
2023-01-20T23:01:27.881Z,-6.10
2023-01-20T23:04:00.182Z,-6.20
2023-01-20T23:06:29.030Z,-6.30
2023-01-20T23:08:56.199Z,-6.30
2023-01-20T23:11:23.751Z,-6.30
2023-01-20T23:13:52.038Z,-6.30
2023-01-20T23:16:22.562Z,-6.30
2023-01-20T23:18:51.279Z,-6.40
2023-01-20T23:21:20.004Z,-6.40
2023-01-20T23:23:47.396Z,-6.40
2023-01-20T23:26:19.007Z,-6.50
2023-01-20T23:28:47.031Z,-6.70
2023-01-20T23:31:16.248Z,-6.80
2023-01-20T23:33:44.234Z,-6.90
2023-01-20T23:36:14.424Z,-6.90
2023-01-20T23:38:42.385Z,-6.80
2023-01-20T23:41:09.931Z,-6.70
2023-01-20T23:43:36.977Z,-6.50
2023-01-20T23:46:06.248Z,-6.50
2023-01-20T23:48:34.409Z,-6.50
2023-01-20T23:51:02.071Z,-6.60
2023-01-20T23:53:31.066Z,-6.60
2023-01-20T23:56:06.915Z,-6.60
2023-01-20T23:58:33.897Z,-6.60
